createdAt,value
2022-10-02T00:00:05.144Z,100615.91
2022-10-02T00:02:52.686Z,100618.56
2022-10-02T00:05:39.087Z,100627.28
2022-10-02T00:08:23.919Z,100622.06
2022-10-02T00:11:00.705Z,100629.91
2022-10-02T00:13:37.390Z,100622.09
2022-10-02T00:16:11.637Z,100621.19
2022-10-02T00:18:39.758Z,100636.03
2022-10-02T00:21:32.449Z,100624.69
2022-10-02T00:24:02.156Z,100631.66
2022-10-02T00:26:37.310Z,100634.25
2022-10-02T00:29:33.385Z,100628.16
2022-10-02T00:32:34.104Z,100629.97
2022-10-02T00:35:19.368Z,100627.34
2022-10-02T00:38:15.421Z,100630.88
2022-10-02T00:40:56.623Z,100635.22
2022-10-02T00:43:52.000Z,100635.22
2022-10-02T00:46:56.780Z,100641.34
2022-10-02T00:50:18.117Z,100643.09
2022-10-02T00:53:11.092Z,100637.88
2022-10-02T00:55:58.410Z,100644.00
2022-10-02T00:59:02.904Z,100647.47
2022-10-02T01:01:46.043Z,100651.00
2022-10-02T01:04:28.560Z,100645.78
2022-10-02T01:06:56.097Z,100651.88
2022-10-02T01:09:24.511Z,100644.94
2022-10-02T01:11:52.445Z,100650.16
2022-10-02T01:14:19.636Z,100657.09
2022-10-02T01:16:46.936Z,100664.09
2022-10-02T01:19:32.896Z,100652.75
2022-10-02T01:22:13.633Z,100666.72
2022-10-02T01:24:53.760Z,100658.88
2022-10-02T01:27:21.183Z,100670.22
2022-10-02T01:29:55.540Z,100671.97
2022-10-02T01:32:26.092Z,100675.47
2022-10-02T01:34:54.267Z,100677.22
2022-10-02T01:37:23.036Z,100685.97
2022-10-02T01:39:50.047Z,100692.91
2022-10-02T01:42:17.453Z,100677.25
2022-10-02T01:44:44.932Z,100691.19
2022-10-02T01:47:26.175Z,100682.50
2022-10-02T01:50:11.452Z,100695.56
2022-10-02T01:53:35.802Z,100692.09
2022-10-02T01:56:44.537Z,100694.69
2022-10-02T01:59:45.975Z,100694.75
2022-10-02T02:02:37.202Z,100699.06
2022-10-02T02:05:24.171Z,100701.72
2022-10-02T02:08:37.745Z,100696.50
2022-10-02T02:11:16.567Z,100705.22
2022-10-02T02:14:00.565Z,100707.84
2022-10-02T02:16:46.151Z,100698.25
2022-10-02T02:19:34.863Z,100709.59
2022-10-02T02:22:08.783Z,100727.00
2022-10-02T02:24:52.765Z,100711.34
2022-10-02T02:27:26.023Z,100717.44
2022-10-02T02:30:00.469Z,100712.22
2022-10-02T02:32:31.945Z,100708.72
2022-10-02T02:35:05.759Z,100716.59
2022-10-02T02:37:36.249Z,100717.44
2022-10-02T02:40:25.943Z,100717.44
2022-10-02T02:43:06.105Z,100727.88
2022-10-02T02:45:39.948Z,100730.50
2022-10-02T02:48:22.277Z,100720.06
2022-10-02T02:51:01.529Z,100722.69
2022-10-02T02:54:05.415Z,100714.84
2022-10-02T02:56:33.606Z,100720.06
2022-10-02T02:59:12.527Z,100720.06
2022-10-02T03:01:41.118Z,100723.53
2022-10-02T03:04:14.692Z,100719.19
2022-10-02T03:06:45.236Z,100733.13
2022-10-02T03:09:17.066Z,100736.63
2022-10-02T03:12:17.991Z,100733.16
2022-10-02T03:15:19.331Z,100746.19
2022-10-02T03:18:18.313Z,100747.06
2022-10-02T03:21:24.661Z,100742.72
2022-10-02T03:24:15.284Z,100731.38
2022-10-02T03:26:53.531Z,100733.09
2022-10-02T03:30:02.310Z,100728.78
2022-10-02T03:32:31.087Z,100728.75
2022-10-02T03:34:58.361Z,100720.91
2022-10-02T03:37:26.151Z,100723.50
2022-10-02T03:39:53.833Z,100721.75
2022-10-02T03:42:26.267Z,100722.63
2022-10-02T03:44:53.131Z,100715.66
2022-10-02T03:47:20.001Z,100727.81
2022-10-02T03:49:46.864Z,100720.00
2022-10-02T03:52:21.075Z,100726.94
2022-10-02T03:54:53.846Z,100724.34
2022-10-02T03:57:24.576Z,100726.91
2022-10-02T04:00:09.261Z,100724.31
2022-10-02T04:02:40.507Z,100732.16
2022-10-02T04:05:35.661Z,100730.41
2022-10-02T04:08:22.327Z,100730.38
2022-10-02T04:11:23.951Z,100722.53
2022-10-02T04:14:36.093Z,100726.88
2022-10-02T04:17:11.507Z,100729.50
2022-10-02T04:20:00.096Z,100733.84
2022-10-02T04:22:47.591Z,100734.72
2022-10-02T04:25:25.282Z,100734.72
2022-10-02T04:27:59.031Z,100733.84
2022-10-02T04:30:26.303Z,100735.56
2022-10-02T04:32:54.518Z,100739.06
2022-10-02T04:35:58.978Z,100735.56
2022-10-02T04:38:50.075Z,100739.06
2022-10-02T04:41:43.212Z,100740.78
2022-10-02T04:44:40.605Z,100739.94
2022-10-02T04:47:49.464Z,100737.31
2022-10-02T04:50:49.067Z,100754.72
2022-10-02T04:54:03.505Z,100762.56
2022-10-02T04:57:14.407Z,100766.91
2022-10-02T05:00:01.569Z,100763.44
2022-10-02T05:02:45.405Z,100770.41
2022-10-02T05:05:35.304Z,100757.38
2022-10-02T05:08:42.430Z,100764.31
2022-10-02T05:11:52.021Z,100784.34
2022-10-02T05:14:56.261Z,100786.13
2022-10-02T05:17:44.771Z,100793.97
2022-10-02T05:21:02.983Z,100796.59
2022-10-02T05:24:18.643Z,100785.28
2022-10-02T05:27:16.755Z,100800.09
2022-10-02T05:30:18.633Z,100797.50
2022-10-02T05:33:19.154Z,100794.88
2022-10-02T05:36:35.192Z,100800.97
2022-10-02T05:39:37.587Z,100803.56
2022-10-02T05:42:27.649Z,100794.00
2022-10-02T05:45:25.520Z,100801.84
2022-10-02T05:48:03.579Z,100794.00
2022-10-02T05:50:35.669Z,100804.44
2022-10-02T05:53:45.535Z,100806.19
2022-10-02T05:56:30.428Z,100808.78
2022-10-02T05:59:14.059Z,100816.63
2022-10-02T06:01:46.770Z,100817.50
2022-10-02T06:04:19.236Z,100811.41
2022-10-02T06:06:51.913Z,100813.13
2022-10-02T06:09:43.635Z,100813.16
2022-10-02T06:12:26.783Z,100811.38
2022-10-02T06:15:41.724Z,100814.00
2022-10-02T06:18:16.913Z,100812.25
2022-10-02T06:21:03.251Z,100815.69
2022-10-02T06:23:44.321Z,100819.19
2022-10-02T06:26:26.780Z,100820.94
2022-10-02T06:29:02.484Z,100820.00
2022-10-02T06:32:05.492Z,100813.91
2022-10-02T06:34:32.416Z,100819.13
2022-10-02T06:37:51.025Z,100821.72
2022-10-02T06:40:50.711Z,100829.56
2022-10-02T06:44:10.682Z,100833.91
2022-10-02T06:47:12.438Z,100822.56
2022-10-02T06:50:20.617Z,100836.50
2022-10-02T06:53:18.707Z,100829.50
2022-10-02T06:56:26.113Z,100834.69
2022-10-02T06:59:13.455Z,100826.81
2022-10-02T07:02:17.480Z,100821.56
2022-10-02T07:05:33.800Z,100834.63
2022-10-02T07:08:37.876Z,100830.25
2022-10-02T07:11:28.458Z,100829.31
2022-10-02T07:14:17.355Z,100836.28
2022-10-02T07:17:21.548Z,100833.63
2022-10-02T07:20:10.284Z,100831.81
2022-10-02T07:23:07.501Z,100846.56
2022-10-02T07:25:58.479Z,100841.25
2022-10-02T07:29:03.248Z,100841.16
2022-10-02T07:31:48.007Z,100840.28
2022-10-02T07:34:39.667Z,100853.31
2022-10-02T07:37:34.021Z,100830.63
2022-10-02T07:40:29.022Z,100858.50
2022-10-02T07:43:23.964Z,100868.03
2022-10-02T07:46:26.375Z,100874.97
2022-10-02T07:49:29.027Z,100860.97
2022-10-02T07:52:05.968Z,100862.63
2022-10-02T07:54:41.210Z,100861.66
2022-10-02T07:57:29.121Z,100845.84
2022-10-02T08:00:20.610Z,100856.25
2022-10-02T08:03:01.204Z,100857.06
2022-10-02T08:05:38.455Z,100854.38
2022-10-02T08:08:26.020Z,100863.09
2022-10-02T08:11:07.730Z,100858.66
2022-10-02T08:13:42.957Z,100860.31
2022-10-02T08:16:12.406Z,100857.66
2022-10-02T08:18:46.091Z,100868.91
2022-10-02T08:21:17.413Z,100867.13
2022-10-02T08:24:07.059Z,100867.09
2022-10-02T08:26:53.759Z,100868.81
2022-10-02T08:29:40.183Z,100878.41
2022-10-02T08:32:14.109Z,100874.84
2022-10-02T08:34:43.524Z,100866.06
2022-10-02T08:38:12.357Z,100879.06
2022-10-02T08:40:56.287Z,100873.72
2022-10-02T08:44:10.224Z,100869.28
2022-10-02T08:46:58.519Z,100877.94
2022-10-02T08:50:11.650Z,100882.16
2022-10-02T08:53:17.429Z,100878.56
2022-10-02T08:56:26.313Z,100881.06
2022-10-02T08:59:28.590Z,100874.84
2022-10-02T09:02:27.584Z,100874.72
2022-10-02T09:05:28.865Z,100884.31
2022-10-02T09:08:29.470Z,100892.09
2022-10-02T09:11:36.446Z,100889.31
2022-10-02T09:14:43.718Z,100890.19
2022-10-02T09:17:35.609Z,100896.13
2022-10-02T09:20:39.407Z,100900.44
2022-10-02T09:23:40.785Z,100899.44
2022-10-02T09:26:26.993Z,100889.78
2022-10-02T09:29:28.559Z,100895.81
2022-10-02T09:32:43.145Z,100870.41
2022-10-02T09:35:55.099Z,100876.31
2022-10-02T09:39:02.849Z,100880.63
2022-10-02T09:42:15.258Z,100875.38
2022-10-02T09:45:25.935Z,100870.13
2022-10-02T09:48:24.774Z,100873.69
2022-10-02T09:51:17.225Z,100869.31
2022-10-02T09:54:36.704Z,100872.75
2022-10-02T09:57:45.124Z,100870.13
2022-10-02T10:00:39.219Z,100874.53
2022-10-02T10:03:51.069Z,100871.00
2022-10-02T10:06:51.597Z,100877.06
2022-10-02T10:09:51.601Z,100871.72
2022-10-02T10:13:21.359Z,100876.91
2022-10-02T10:15:57.570Z,100891.69
2022-10-02T10:18:43.110Z,100889.84
2022-10-02T10:22:04.350Z,100888.94
2022-10-02T10:25:18.152Z,100887.06
2022-10-02T10:28:20.056Z,100890.56
2022-10-02T10:31:34.750Z,100894.03
2022-10-02T10:34:33.408Z,100883.41
2022-10-02T10:37:44.706Z,100885.09
2022-10-02T10:40:38.680Z,100877.09
2022-10-02T10:43:42.893Z,100879.72
2022-10-02T10:46:32.943Z,100885.81
2022-10-02T10:49:31.763Z,100877.94
2022-10-02T10:52:45.685Z,100877.09
2022-10-02T10:55:32.933Z,100882.34
2022-10-02T10:58:21.296Z,100883.19
2022-10-02T11:01:20.929Z,100884.97
2022-10-02T11:04:14.028Z,100894.50
2022-10-02T11:06:56.250Z,100896.25
2022-10-02T11:09:50.696Z,100893.59
2022-10-02T11:12:39.119Z,100897.03
2022-10-02T11:15:38.102Z,100887.28
2022-10-02T11:18:31.449Z,100889.75
2022-10-02T11:21:41.268Z,100893.16
2022-10-02T11:24:42.987Z,100897.41
2022-10-02T11:27:42.267Z,100886.75
2022-10-02T11:31:07.311Z,100891.88
2022-10-02T11:33:57.266Z,100901.38
2022-10-02T11:36:43.441Z,100901.22
2022-10-02T11:39:32.117Z,100899.22
2022-10-02T11:42:46.012Z,100894.69
2022-10-02T11:45:38.360Z,100905.03
2022-10-02T11:48:43.484Z,100907.56
2022-10-02T11:51:23.694Z,100905.69
2022-10-02T11:54:26.281Z,100895.03
2022-10-02T11:57:18.239Z,100895.75
2022-10-02T12:00:24.584Z,100897.34
2022-10-02T12:03:12.671Z,100897.97
2022-10-02T12:06:42.606Z,100895.81
2022-10-02T12:09:39.555Z,100892.91
2022-10-02T12:12:17.008Z,100900.72
2022-10-02T12:15:23.939Z,100893.56
2022-10-02T12:18:17.123Z,100889.97
2022-10-02T12:21:21.932Z,100899.38
2022-10-02T12:24:39.539Z,100906.47
2022-10-02T12:27:26.910Z,100904.13
2022-10-02T12:30:15.281Z,100904.28
2022-10-02T12:33:04.069Z,100900.09
2022-10-02T12:35:57.132Z,100902.00
2022-10-02T12:39:02.832Z,100911.72
2022-10-02T12:42:30.926Z,100922.38
2022-10-02T12:45:17.547Z,100919.81
2022-10-02T12:48:14.163Z,100919.75
2022-10-02T12:51:11.767Z,100917.00
2022-10-02T12:54:25.721Z,100917.88
2022-10-02T12:57:39.335Z,100917.72
2022-10-02T13:00:16.810Z,100921.22
2022-10-02T13:03:10.440Z,100927.47
2022-10-02T13:06:11.418Z,100927.66
2022-10-02T13:09:07.465Z,100920.78
2022-10-02T13:12:16.147Z,100921.75
2022-10-02T13:14:53.492Z,100923.53
2022-10-02T13:17:38.028Z,100921.91
2022-10-02T13:20:21.379Z,100926.38
2022-10-02T13:23:21.879Z,100920.22
2022-10-02T13:26:29.762Z,100924.59
2022-10-02T13:29:25.446Z,100923.78
2022-10-02T13:32:20.790Z,100932.50
2022-10-02T13:35:39.745Z,100921.09
2022-10-02T13:38:28.851Z,100918.47
2022-10-02T13:41:25.953Z,100916.69
2022-10-02T13:44:20.092Z,100921.84
2022-10-02T13:47:16.490Z,100919.22
2022-10-02T13:50:17.833Z,100922.50
2022-10-02T13:53:31.952Z,100923.34
2022-10-02T13:56:29.930Z,100923.31
2022-10-02T13:59:21.172Z,100927.66
2022-10-02T14:02:09.057Z,100932.06
2022-10-02T14:05:05.249Z,100929.44
2022-10-02T14:07:53.606Z,100931.19
2022-10-02T14:10:53.035Z,100933.03
2022-10-02T14:13:59.082Z,100932.19
2022-10-02T14:16:44.189Z,100926.97
2022-10-02T14:19:52.868Z,100941.91
2022-10-02T14:22:57.505Z,100935.78
2022-10-02T14:25:57.658Z,100938.53
2022-10-02T14:28:58.292Z,100937.03
2022-10-02T14:31:58.467Z,100944.03
2022-10-02T14:34:50.848Z,100955.38
2022-10-02T14:37:30.865Z,100953.47
2022-10-02T14:40:01.767Z,100955.88
2022-10-02T14:42:53.939Z,100956.63
2022-10-02T14:46:03.166Z,100957.50
2022-10-02T14:49:10.588Z,100969.00
2022-10-02T14:52:20.557Z,100963.91
2022-10-02T14:55:26.617Z,100962.22
2022-10-02T14:58:30.281Z,100973.81
2022-10-02T15:01:21.498Z,100965.25
2022-10-02T15:04:06.957Z,100970.50
2022-10-02T15:06:59.682Z,100978.44
2022-10-02T15:10:04.221Z,100980.31
2022-10-02T15:12:49.063Z,100986.63
2022-10-02T15:15:25.599Z,100987.56
2022-10-02T15:18:32.275Z,100995.59
2022-10-02T15:21:08.035Z,100994.78
2022-10-02T15:23:51.143Z,100997.56
2022-10-02T15:26:56.604Z,100998.56
2022-10-02T15:29:58.521Z,101000.44
2022-10-02T15:32:47.771Z,101004.94
2022-10-02T15:35:29.383Z,101002.34
2022-10-02T15:38:46.740Z,101001.59
2022-10-02T15:41:22.921Z,101007.00
2022-10-02T15:44:18.444Z,101010.66
2022-10-02T15:46:58.568Z,101017.78
2022-10-02T15:49:56.368Z,101013.44
2022-10-02T15:52:48.335Z,101014.50
2022-10-02T15:55:40.791Z,101017.22
2022-10-02T15:58:54.846Z,101013.03
2022-10-02T16:01:28.484Z,101020.09
2022-10-02T16:04:07.873Z,101021.09
2022-10-02T16:07:32.970Z,101033.53
2022-10-02T16:10:25.675Z,101026.66
2022-10-02T16:13:43.591Z,101027.69
2022-10-02T16:16:40.115Z,101033.09
2022-10-02T16:19:39.259Z,101040.22
2022-10-02T16:22:18.363Z,101040.31
2022-10-02T16:25:56.572Z,101044.84
2022-10-02T16:29:00.919Z,101041.47
2022-10-02T16:32:25.503Z,101038.13
2022-10-02T16:35:18.390Z,101046.97
2022-10-02T16:37:57.379Z,101058.38
2022-10-02T16:40:44.343Z,101061.06
2022-10-02T16:43:54.251Z,101059.41
2022-10-02T16:46:44.196Z,101064.75
2022-10-02T16:49:44.755Z,101055.25
2022-10-02T16:53:24.473Z,101071.94
2022-10-02T16:56:07.167Z,101067.63
2022-10-02T16:59:05.657Z,101074.66
2022-10-02T17:02:13.141Z,101080.88
2022-10-02T17:05:16.515Z,101074.78
2022-10-02T17:08:10.326Z,101074.88
2022-10-02T17:10:55.554Z,101082.78
2022-10-02T17:13:37.915Z,101088.09
2022-10-02T17:16:16.356Z,101096.00
2022-10-02T17:18:58.960Z,101085.56
2022-10-02T17:21:42.670Z,101088.22
2022-10-02T17:24:39.311Z,101097.00
2022-10-02T17:27:58.751Z,101100.59
2022-10-02T17:30:28.899Z,101101.50
2022-10-02T17:33:14.995Z,101106.69
2022-10-02T17:36:01.653Z,101106.75
2022-10-02T17:38:56.101Z,101114.66
2022-10-02T17:41:55.937Z,101124.28
2022-10-02T17:45:00.595Z,101131.31
2022-10-02T17:48:02.960Z,101127.91
2022-10-02T17:51:14.957Z,101141.91
2022-10-02T17:54:58.510Z,101142.84
2022-10-02T17:57:47.981Z,101154.22
2022-10-02T18:00:24.692Z,101150.75
2022-10-02T18:03:23.059Z,101162.09
2022-10-02T18:06:19.609Z,101163.00
2022-10-02T18:09:00.623Z,101167.38
2022-10-02T18:12:03.744Z,101164.78
2022-10-02T18:15:08.185Z,101174.41
2022-10-02T18:17:43.284Z,101172.69
2022-10-02T18:20:35.311Z,101173.56
2022-10-02T18:23:33.564Z,101183.19
2022-10-02T18:26:48.329Z,101182.34
2022-10-02T18:29:45.399Z,101181.47
2022-10-02T18:33:03.042Z,101182.34
2022-10-02T18:36:27.831Z,101189.38
2022-10-02T18:39:29.132Z,101191.16
2022-10-02T18:42:40.971Z,101186.78
2022-10-02T18:45:40.123Z,101190.28
2022-10-02T18:48:30.914Z,101196.44
2022-10-02T18:51:24.617Z,101192.06
2022-10-02T18:54:18.723Z,101197.31
2022-10-02T18:57:08.202Z,101193.81
2022-10-02T18:59:39.478Z,101199.06
2022-10-02T19:02:22.334Z,101204.31
2022-10-02T19:05:09.624Z,101203.47
2022-10-02T19:07:46.695Z,101209.56
2022-10-02T19:10:43.745Z,101213.97
2022-10-02T19:13:18.144Z,101219.16
2022-10-02T19:15:48.498Z,101212.19
2022-10-02T19:18:25.392Z,101213.94
2022-10-02T19:21:09.600Z,101218.34
2022-10-02T19:24:03.829Z,101219.22
2022-10-02T19:26:35.026Z,101222.69
2022-10-02T19:29:46.307Z,101221.84
2022-10-02T19:32:21.308Z,101234.94
2022-10-02T19:34:59.861Z,101227.97
2022-10-02T19:37:27.018Z,101232.31
2022-10-02T19:39:59.809Z,101227.97
2022-10-02T19:42:33.933Z,101238.44
2022-10-02T19:45:06.193Z,101227.97
2022-10-02T19:47:42.692Z,101241.09
2022-10-02T19:50:27.884Z,101237.56
2022-10-02T19:52:59.779Z,101232.34
2022-10-02T19:55:33.053Z,101242.81
2022-10-02T19:58:25.272Z,101232.38
2022-10-02T20:00:55.772Z,101241.97
2022-10-02T20:03:25.001Z,101246.34
2022-10-02T20:05:58.088Z,101252.44
2022-10-02T20:08:41.026Z,101253.31
2022-10-02T20:11:19.674Z,101255.03
2022-10-02T20:14:03.681Z,101260.31
2022-10-02T20:16:49.417Z,101262.06
2022-10-02T20:19:25.338Z,101266.41
2022-10-02T20:21:56.130Z,101263.78
2022-10-02T20:24:50.596Z,101271.66
2022-10-02T20:27:42.547Z,101276.00
2022-10-02T20:30:19.460Z,101272.50
2022-10-02T20:33:08.750Z,101273.41
2022-10-02T20:35:45.099Z,101274.25
2022-10-02T20:38:24.001Z,101280.38
2022-10-02T20:40:54.504Z,101276.88
2022-10-02T20:43:45.599Z,101291.69
2022-10-02T20:46:35.557Z,101282.09
2022-10-02T20:49:35.329Z,101281.22
2022-10-02T20:52:40.358Z,101283.84
2022-10-02T20:55:27.277Z,101292.56
2022-10-02T20:58:17.089Z,101290.81
2022-10-02T21:01:18.577Z,101289.06
2022-10-02T21:04:19.255Z,101291.69
2022-10-02T21:07:20.855Z,101300.41
2022-10-02T21:10:29.002Z,101295.16
2022-10-02T21:13:09.111Z,101303.88
2022-10-02T21:16:50.261Z,101296.03
2022-10-02T21:20:07.190Z,101310.88
2022-10-02T21:23:08.437Z,101310.84
2022-10-02T21:26:28.041Z,101313.47
2022-10-02T21:29:37.428Z,101312.59
2022-10-02T21:32:41.013Z,101303.00
2022-10-02T21:35:49.616Z,101309.97
2022-10-02T21:38:44.291Z,101312.56
2022-10-02T21:41:52.660Z,101317.81
2022-10-02T21:44:49.211Z,101323.91
2022-10-02T21:47:43.694Z,101327.38
2022-10-02T21:50:59.996Z,101326.50
2022-10-02T21:54:22.022Z,101322.16
2022-10-02T21:57:43.755Z,101324.78
2022-10-02T22:00:24.775Z,101326.50
2022-10-02T22:03:34.253Z,101332.56
2022-10-02T22:06:39.753Z,101323.84
2022-10-02T22:09:34.398Z,101327.31
2022-10-02T22:12:45.465Z,101335.19
2022-10-02T22:15:31.133Z,101341.28
2022-10-02T22:18:13.061Z,101338.66
2022-10-02T22:20:48.737Z,101342.16
2022-10-02T22:24:06.795Z,101345.66
2022-10-02T22:27:15.879Z,101343.00
2022-10-02T22:29:52.421Z,101344.75
2022-10-02T22:33:06.523Z,101350.88
2022-10-02T22:35:48.275Z,101349.97
2022-10-02T22:38:32.176Z,101356.97
2022-10-02T22:41:23.873Z,101350.84
2022-10-02T22:44:09.901Z,101357.88
2022-10-02T22:47:00.828Z,101359.59
2022-10-02T22:49:58.948Z,101359.63
2022-10-02T22:52:33.806Z,101364.88
2022-10-02T22:55:33.986Z,101348.28
2022-10-02T22:58:14.601Z,101365.78
2022-10-02T23:01:07.520Z,101360.53
2022-10-02T23:03:54.439Z,101364.03
2022-10-02T23:06:41.908Z,101354.41
2022-10-02T23:09:22.929Z,101362.28
2022-10-02T23:12:27.791Z,101356.16
2022-10-02T23:15:05.789Z,101358.78
2022-10-02T23:18:02.591Z,101358.81
2022-10-02T23:20:43.003Z,101350.06
2022-10-02T23:23:17.907Z,101361.44
2022-10-02T23:26:10.026Z,101365.81
2022-10-02T23:28:47.777Z,101364.94
2022-10-02T23:31:30.267Z,101363.19
2022-10-02T23:34:32.785Z,101367.59
2022-10-02T23:38:02.093Z,101377.16
2022-10-02T23:41:28.437Z,101387.66
2022-10-02T23:44:50.984Z,101385.91
2022-10-02T23:47:29.192Z,101397.28
2022-10-02T23:49:57.875Z,101388.56
2022-10-02T23:52:50.451Z,101388.56
2022-10-02T23:55:39.640Z,101401.63
2022-10-02T23:58:58.335Z,101399.00
